Aviation Digital Data Service (ADDS)

Output produced by METARs form (0456 UTC 22 December 2014)
found at http://aviationweather.gov/adds/metars/
 
KJAX 220314Z 2203/2224 04006KT 3SM BR VCSH OVC004 
     FM220430 VRB03KT 2SM SHRA BR OVC002 
     TEMPO 2207/2211 3/4SM RA BR 
     FM221400 10005KT 5SM -RA BR OVC004 
     FM221800 08006KT P6SM VCSH OVC008